sensor_id;sensor_type;location;lat;lon;timestamp;pressure;altitude;pressure_sealevel;temperature;humidity
48553;BME280;34335;51.566;6.994;2023-10-31T00:00:03;98827.41;;;11.82;100.00
48553;BME280;34335;51.566;6.994;2023-10-31T00:02:29;98847.75;;;11.71;100.00
48553;BME280;34335;51.566;6.994;2023-10-31T00:04:54;98864.44;;;11.65;100.00
48553;BME280;34335;51.566;6.994;2023-10-31T00:07:20;98874.28;;;11.57;100.00
48553;BME280;34335;51.566;6.994;2023-10-31T00:09:45;98865.22;;;11.42;100.00
48553;BME280;34335;51.566;6.994;2023-10-31T00:12:10;98873.19;;;11.37;100.00
48553;BME280;34335;51.566;6.994;2023-10-31T00:14:36;98878.19;;;11.18;100.00
48553;BME280;34335;51.566;6.994;2023-10-31T00:17:01;98892.69;;;10.99;100.00
48553;BME280;34335;51.566;6.994;2023-10-31T00:19:27;98905.06;;;10.90;100.00
48553;BME280;34335;51.566;6.994;2023-10-31T00:21:52;98916.00;;;10.73;100.00
48553;BME280;34335;51.566;6.994;2023-10-31T00:24:17;98920.09;;;10.81;100.00
48553;BME280;34335;51.566;6.994;2023-10-31T00:26:43;98932.41;;;10.44;100.00
48553;BME280;34335;51.566;6.994;2023-10-31T00:29:08;98936.31;;;10.59;100.00
48553;BME280;34335;51.566;6.994;2023-10-31T00:31:33;98939.63;;;10.34;100.00
48553;BME280;34335;51.566;6.994;2023-10-31T00:34:06;98950.13;;;10.29;100.00
48553;BME280;34335;51.566;6.994;2023-10-31T00:36:31;98953.88;;;10.19;100.00
48553;BME280;34335;51.566;6.994;2023-10-31T00:38:56;98961.03;;;10.11;100.00
48553;BME280;34335;51.566;6.994;2023-10-31T00:41:22;98964.59;;;10.07;100.00
48553;BME280;34335;51.566;6.994;2023-10-31T00:43:47;98967.13;;;10.10;100.00
48553;BME280;34335;51.566;6.994;2023-10-31T00:46:12;98955.84;;;10.11;100.00
48553;BME280;34335;51.566;6.994;2023-10-31T00:48:38;98981.19;;;10.01;100.00
48553;BME280;34335;51.566;6.994;2023-10-31T00:51:03;98981.19;;;10.01;100.00
48553;BME280;34335;51.566;6.994;2023-10-31T00:53:29;98998.66;;;9.96;100.00
48553;BME280;34335;51.566;6.994;2023-10-31T00:55:54;98996.91;;;9.96;100.00
48553;BME280;34335;51.566;6.994;2023-10-31T00:58:20;98996.25;;;9.88;100.00
48553;BME280;34335;51.566;6.994;2023-10-31T01:00:45;99009.03;;;9.96;100.00
48553;BME280;34335;51.566;6.994;2023-10-31T01:03:10;99012.63;;;9.90;100.00
48553;BME280;34335;51.566;6.994;2023-10-31T01:05:36;99020.50;;;9.87;100.00
48553;BME280;34335;51.566;6.994;2023-10-31T01:08:01;99029.41;;;9.77;100.00
48553;BME280;34335;51.566;6.994;2023-10-31T01:10:26;99033.59;;;9.82;100.00
48553;BME280;34335;51.566;6.994;2023-10-31T01:12:52;99033.03;;;9.70;100.00
48553;BME280;34335;51.566;6.994;2023-10-31T01:15:17;99048.72;;;9.65;100.00
48553;BME280;34335;51.566;6.994;2023-10-31T01:17:42;99043.31;;;9.76;100.00
48553;BME280;34335;51.566;6.994;2023-10-31T01:20:08;99040.84;;;9.70;100.00
48553;BME280;34335;51.566;6.994;2023-10-31T01:22:34;99046.25;;;9.60;100.00
48553;BME280;34335;51.566;6.994;2023-10-31T01:24:59;99059.28;;;9.57;100.00
48553;BME280;34335;51.566;6.994;2023-10-31T01:27:25;99069.59;;;9.60;100.00
48553;BME280;34335;51.566;6.994;2023-10-31T01:29:50;99076.72;;;9.52;100.00
48553;BME280;34335;51.566;6.994;2023-10-31T01:32:15;99078.44;;;9.53;100.00
48553;BME280;34335;51.566;6.994;2023-10-31T01:34:41;99087.03;;;9.55;100.00
48553;BME280;34335;51.566;6.994;2023-10-31T01:37:06;99079.97;;;9.60;100.00
48553;BME280;34335;51.566;6.994;2023-10-31T01:39:31;99095.44;;;9.66;100.00
48553;BME280;34335;51.566;6.994;2023-10-31T01:41:57;99100.22;;;9.46;100.00
48553;BME280;34335;51.566;6.994;2023-10-31T01:44:22;99102.59;;;9.55;100.00
48553;BME280;34335;51.566;6.994;2023-10-31T01:46:47;99107.13;;;9.45;100.00
48553;BME280;34335;51.566;6.994;2023-10-31T01:49:14;99116.00;;;9.37;100.00
48553;BME280;34335;51.566;6.994;2023-10-31T01:51:40;99117.69;;;9.38;100.00
48553;BME280;34335;51.566;6.994;2023-10-31T01:54:06;99123.53;;;9.47;100.00
48553;BME280;34335;51.566;6.994;2023-10-31T01:56:33;99129.75;;;9.40;100.00
48553;BME280;34335;51.566;6.994;2023-10-31T01:58:59;99129.75;;;9.40;100.00
48553;BME280;34335;51.566;6.994;2023-10-31T02:01:24;99128.88;;;9.40;100.00
48553;BME280;34335;51.566;6.994;2023-10-31T02:03:49;99129.66;;;9.45;100.00
48553;BME280;34335;51.566;6.994;2023-10-31T02:06:15;99127.22;;;9.37;100.00
48553;BME280;34335;51.566;6.994;2023-10-31T02:08:41;99130.75;;;9.33;100.00
48553;BME280;34335;51.566;6.994;2023-10-31T02:11:06;99128.97;;;9.37;100.00
48553;BME280;34335;51.566;6.994;2023-10-31T02:13:35;99125.38;;;9.42;100.00
48553;BME280;34335;51.566;6.994;2023-10-31T02:16:01;99128.13;;;9.34;100.00
48553;BME280;34335;51.566;6.994;2023-10-31T02:18:27;99132.34;;;9.39;100.00
48553;BME280;34335;51.566;6.994;2023-10-31T02:20:52;99134.06;;;9.40;100.00
48553;BME280;34335;51.566;6.994;2023-10-31T02:23:18;99134.88;;;9.42;100.00
48553;BME280;34335;51.566;6.994;2023-10-31T02:25:43;99131.47;;;9.40;100.00
48553;BME280;34335;51.566;6.994;2023-10-31T02:28:08;99130.53;;;9.44;100.00
48553;BME280;34335;51.566;6.994;2023-10-31T02:30:34;99124.41;;;9.46;100.00
48553;BME280;34335;51.566;6.994;2023-10-31T02:33:03;99132.16;;;9.48;100.00
48553;BME280;34335;51.566;6.994;2023-10-31T02:35:29;99132.28;;;9.42;100.00
48553;BME280;34335;51.566;6.994;2023-10-31T02:37:54;99131.41;;;9.43;100.00
48553;BME280;34335;51.566;6.994;2023-10-31T02:40:19;99130.59;;;9.41;100.00
48553;BME280;34335;51.566;6.994;2023-10-31T02:42:45;99144.44;;;9.40;100.00
48553;BME280;34335;51.566;6.994;2023-10-31T02:45:11;99139.34;;;9.37;100.00
48553;BME280;34335;51.566;6.994;2023-10-31T02:47:36;99145.50;;;9.31;100.00
48553;BME280;34335;51.566;6.994;2023-10-31T02:50:01;99142.03;;;9.30;100.00
48553;BME280;34335;51.566;6.994;2023-10-31T02:52:27;99141.22;;;9.28;100.00
48553;BME280;34335;51.566;6.994;2023-10-31T02:54:52;99140.56;;;9.18;100.00
48553;BME280;34335;51.566;6.994;2023-10-31T02:57:18;99139.78;;;9.15;100.00
48553;BME280;34335;51.566;6.994;2023-10-31T02:59:43;99142.28;;;9.19;100.00
48553;BME280;34335;51.566;6.994;2023-10-31T03:02:08;99146.59;;;9.19;100.00
48553;BME280;34335;51.566;6.994;2023-10-31T03:04:34;99144.97;;;9.15;100.00
48553;BME280;34335;51.566;6.994;2023-10-31T03:06:59;99149.19;;;9.19;100.00
48553;BME280;34335;51.566;6.994;2023-10-31T03:09:24;99152.59;;;9.21;100.00
48553;BME280;34335;51.566;6.994;2023-10-31T03:11:50;99154.31;;;9.22;100.00
48553;BME280;34335;51.566;6.994;2023-10-31T03:14:15;99148.19;;;9.26;100.00
48553;BME280;34335;51.566;6.994;2023-10-31T03:16:40;99143.00;;;9.26;100.00
48553;BME280;34335;51.566;6.994;2023-10-31T03:19:06;99145.56;;;9.28;100.00
48553;BME280;34335;51.566;6.994;2023-10-31T03:21:32;99155.94;;;9.28;100.00
48553;BME280;34335;51.566;6.994;2023-10-31T03:23:57;99159.44;;;9.25;100.00
48553;BME280;34335;51.566;6.994;2023-10-31T03:26:23;99157.75;;;9.24;100.00
48553;BME280;34335;51.566;6.994;2023-10-31T03:28:48;99160.28;;;9.27;100.00
48553;BME280;34335;51.566;6.994;2023-10-31T03:31:14;99162.88;;;9.26;100.00
48553;BME280;34335;51.566;6.994;2023-10-31T03:33:40;99157.66;;;9.29;100.00
48553;BME280;34335;51.566;6.994;2023-10-31T03:36:07;99155.88;;;9.31;100.00
48553;BME280;34335;51.566;6.994;2023-10-31T03:38:33;99163.63;;;9.32;100.00
48553;BME280;34335;51.566;6.994;2023-10-31T03:40:59;99159.28;;;9.33;100.00
48553;BME280;34335;51.566;6.994;2023-10-31T03:43:24;99174.09;;;9.28;100.00
48553;BME280;34335;51.566;6.994;2023-10-31T03:45:51;99179.19;;;9.32;100.00
48553;BME280;34335;51.566;6.994;2023-10-31T03:48:17;99177.47;;;9.31;100.00
48553;BME280;34335;51.566;6.994;2023-10-31T03:50:42;99168.78;;;9.34;100.00
48553;BME280;34335;51.566;6.994;2023-10-31T03:53:08;99174.84;;;9.34;100.00
48553;BME280;34335;51.566;6.994;2023-10-31T03:55:33;99174.84;;;9.34;100.00
48553;BME280;34335;51.566;6.994;2023-10-31T03:57:59;99185.97;;;9.40;100.00
48553;BME280;34335;51.566;6.994;2023-10-31T04:00:24;99185.16;;;9.36;100.00
48553;BME280;34335;51.566;6.994;2023-10-31T04:02:50;99183.44;;;9.37;100.00
48553;BME280;34335;51.566;6.994;2023-10-31T04:05:15;99181.66;;;9.39;100.00
48553;BME280;34335;51.566;6.994;2023-10-31T04:07:41;99180.88;;;9.35;100.00
48553;BME280;34335;51.566;6.994;2023-10-31T04:10:07;99170.47;;;9.37;100.00
48553;BME280;34335;51.566;6.994;2023-10-31T04:12:33;99178.22;;;9.38;100.00
48553;BME280;34335;51.566;6.994;2023-10-31T04:14:58;99188.63;;;9.37;100.00
48553;BME280;34335;51.566;6.994;2023-10-31T04:17:24;99190.34;;;9.36;100.00
48553;BME280;34335;51.566;6.994;2023-10-31T04:19:49;99190.34;;;9.38;100.00
48553;BME280;34335;51.566;6.994;2023-10-31T04:22:14;99196.34;;;9.40;100.00
48553;BME280;34335;51.566;6.994;2023-10-31T04:24:40;99192.91;;;9.39;100.00
48553;BME280;34335;51.566;6.994;2023-10-31T04:27:06;99193.75;;;9.40;100.00
48553;BME280;34335;51.566;6.994;2023-10-31T04:29:32;99198.03;;;9.41;100.00
48553;BME280;34335;51.566;6.994;2023-10-31T04:31:57;99197.22;;;9.39;100.00
48553;BME280;34335;51.566;6.994;2023-10-31T04:34:23;99196.34;;;9.40;100.00
48553;BME280;34335;51.566;6.994;2023-10-31T04:36:48;99206.72;;;9.40;100.00
48553;BME280;34335;51.566;6.994;2023-10-31T04:39:13;99202.41;;;9.39;100.00
48553;BME280;34335;51.566;6.994;2023-10-31T04:41:39;99202.44;;;9.37;100.00
48553;BME280;34335;51.566;6.994;2023-10-31T04:44:23;99202.41;;;9.39;100.00
48553;BME280;34335;51.566;6.994;2023-10-31T04:46:48;99211.13;;;9.36;100.00
48553;BME280;34335;51.566;6.994;2023-10-31T04:49:14;99210.31;;;9.32;100.00
48553;BME280;34335;51.566;6.994;2023-10-31T04:51:40;99213.69;;;9.38;100.00
48553;BME280;34335;51.566;6.994;2023-10-31T04:54:06;99217.09;;;9.41;100.00
48553;BME280;34335;51.566;6.994;2023-10-31T04:56:31;99214.44;;;9.43;100.00
48553;BME280;34335;51.566;6.994;2023-10-31T04:58:57;99217.09;;;9.40;100.00
48553;BME280;34335;51.566;6.994;2023-10-31T05:01:22;99223.13;;;9.42;100.00
48553;BME280;34335;51.566;6.994;2023-10-31T05:03:47;99211.91;;;9.40;100.00
48553;BME280;34335;51.566;6.994;2023-10-31T05:06:21;99217.94;;;9.42;100.00
48553;BME280;34335;51.566;6.994;2023-10-31T05:08:47;99225.66;;;9.43;100.00
48553;BME280;34335;51.566;6.994;2023-10-31T05:11:13;99225.72;;;9.42;100.00
48553;BME280;34335;51.566;6.994;2023-10-31T05:13:39;99228.34;;;9.40;100.00
48553;BME280;34335;51.566;6.994;2023-10-31T05:16:05;99237.84;;;9.41;100.00
48553;BME280;34335;51.566;6.994;2023-10-31T05:18:30;99241.22;;;9.43;100.00
48553;BME280;34335;51.566;6.994;2023-10-31T05:20:56;99239.56;;;9.41;100.00
48553;BME280;34335;51.566;6.994;2023-10-31T05:23:21;99244.75;;;9.42;100.00
48553;BME280;34335;51.566;6.994;2023-10-31T05:25:46;99249.88;;;9.44;100.00
48553;BME280;34335;51.566;6.994;2023-10-31T05:28:11;99256.78;;;9.45;100.00
48553;BME280;34335;51.566;6.994;2023-10-31T05:30:37;99260.31;;;9.42;100.00
48553;BME280;34335;51.566;6.994;2023-10-31T05:33:02;99248.19;;;9.43;100.00
48553;BME280;34335;51.566;6.994;2023-10-31T05:35:28;99267.22;;;9.42;100.00
48553;BME280;34335;51.566;6.994;2023-10-31T05:37:53;99272.41;;;9.42;100.00
48553;BME280;34335;51.566;6.994;2023-10-31T05:40:18;99261.13;;;9.44;100.00
48553;BME280;34335;51.566;6.994;2023-10-31T05:42:44;99269.78;;;9.43;100.00
48553;BME280;34335;51.566;6.994;2023-10-31T05:45:09;99269.78;;;9.43;100.00
48553;BME280;34335;51.566;6.994;2023-10-31T05:47:34;99283.63;;;9.44;100.00
48553;BME280;34335;51.566;6.994;2023-10-31T05:50:00;99291.41;;;9.44;100.00
48553;BME280;34335;51.566;6.994;2023-10-31T05:52:29;99286.19;;;9.45;100.00
48553;BME280;34335;51.566;6.994;2023-10-31T05:54:57;99287.84;;;9.48;100.00
48553;BME280;34335;51.566;6.994;2023-10-31T05:57:23;99295.72;;;9.43;100.00
48553;BME280;34335;51.566;6.994;2023-10-31T05:59:48;99296.56;;;9.45;100.00
48553;BME280;34335;51.566;6.994;2023-10-31T06:02:14;99306.69;;;9.59;100.00
48553;BME280;34335;51.566;6.994;2023-10-31T06:04:39;99314.41;;;9.62;100.00
48553;BME280;34335;51.566;6.994;2023-10-31T06:07:05;99309.25;;;9.61;100.00
48553;BME280;34335;51.566;6.994;2023-10-31T06:09:31;99317.06;;;9.59;100.00
48553;BME280;34335;51.566;6.994;2023-10-31T06:11:58;99313.72;;;9.54;100.00
48553;BME280;34335;51.566;6.994;2023-10-31T06:14:23;99314.72;;;9.47;100.00
48553;BME280;34335;51.566;6.994;2023-10-31T06:16:49;99319.00;;;9.49;100.00
48553;BME280;34335;51.566;6.994;2023-10-31T06:19:14;99328.50;;;9.49;100.00
48553;BME280;34335;51.566;6.994;2023-10-31T06:21:39;99329.31;;;9.51;100.00
48553;BME280;34335;51.566;6.994;2023-10-31T06:24:05;99339.75;;;9.48;100.00
48553;BME280;34335;51.566;6.994;2023-10-31T06:26:31;99350.22;;;9.45;100.00
48553;BME280;34335;51.566;6.994;2023-10-31T06:28:56;99346.75;;;9.44;100.00
48553;BME280;34335;51.566;6.994;2023-10-31T06:31:21;99344.16;;;9.44;100.00
48553;BME280;34335;51.566;6.994;2023-10-31T06:33:47;99355.50;;;9.39;100.00
48553;BME280;34335;51.566;6.994;2023-10-31T06:36:12;99357.22;;;9.40;100.00
48553;BME280;34335;51.566;6.994;2023-10-31T06:38:37;99352.91;;;9.40;100.00
48553;BME280;34335;51.566;6.994;2023-10-31T06:41:03;99361.63;;;9.33;100.00
48553;BME280;34335;51.566;6.994;2023-10-31T06:43:28;99366.88;;;9.31;100.00
48553;BME280;34335;51.566;6.994;2023-10-31T06:45:54;99364.22;;;9.34;100.00
48553;BME280;34335;51.566;6.994;2023-10-31T06:48:19;99369.25;;;9.44;100.00
48553;BME280;34335;51.566;6.994;2023-10-31T06:50:45;99377.16;;;9.36;100.00
48553;BME280;34335;51.566;6.994;2023-10-31T06:53:10;99378.88;;;9.37;100.00
48553;BME280;34335;51.566;6.994;2023-10-31T06:55:36;99377.97;;;9.40;100.00
48553;BME280;34335;51.566;6.994;2023-10-31T06:58:01;99383.13;;;9.43;100.00
48553;BME280;34335;51.566;6.994;2023-10-31T07:00:27;99377.00;;;9.47;100.00
48553;BME280;34335;51.566;6.994;2023-10-31T07:02:52;99385.66;;;9.44;100.00
48553;BME280;34335;51.566;6.994;2023-10-31T07:05:17;99384.88;;;9.41;100.00
48553;BME280;34335;51.566;6.994;2023-10-31T07:07:45;99397.84;;;9.41;100.00
48553;BME280;34335;51.566;6.994;2023-10-31T07:10:11;99403.84;;;9.44;100.00
48553;BME280;34335;51.566;6.994;2023-10-31T07:12:36;99405.59;;;9.44;100.00
48553;BME280;34335;51.566;6.994;2023-10-31T07:15:01;99400.41;;;9.44;100.00
48553;BME280;34335;51.566;6.994;2023-10-31T07:17:27;99396.88;;;9.46;100.00
48553;BME280;34335;51.566;6.994;2023-10-31T07:19:52;99396.84;;;9.48;100.00
48553;BME280;34335;51.566;6.994;2023-10-31T07:22:18;99401.22;;;9.46;100.00
48553;BME280;34335;51.566;6.994;2023-10-31T07:24:43;99406.44;;;9.46;100.00
48553;BME280;34335;51.566;6.994;2023-10-31T07:27:09;99411.53;;;9.49;100.00
48553;BME280;34335;51.566;6.994;2023-10-31T07:29:34;99409.69;;;9.56;100.00
48553;BME280;34335;51.566;6.994;2023-10-31T07:31:59;99402.78;;;9.55;100.00
48553;BME280;34335;51.566;6.994;2023-10-31T07:34:25;99413.97;;;9.58;100.00
48553;BME280;34335;51.566;6.994;2023-10-31T07:36:50;99414.84;;;9.59;100.00
48553;BME280;34335;51.566;6.994;2023-10-31T07:39:15;99416.59;;;9.57;100.00
48553;BME280;34335;51.566;6.994;2023-10-31T07:41:41;99421.75;;;9.58;100.00
48553;BME280;34335;51.566;6.994;2023-10-31T07:44:06;99421.75;;;9.60;100.00
48553;BME280;34335;51.566;6.994;2023-10-31T07:46:31;99424.34;;;9.58;100.00
48553;BME280;34335;51.566;6.994;2023-10-31T07:48:57;99417.44;;;9.59;100.00
48553;BME280;34335;51.566;6.994;2023-10-31T07:51:23;99426.06;;;9.61;100.00
48553;BME280;34335;51.566;6.994;2023-10-31T07:53:48;99416.50;;;9.63;100.00
48553;BME280;34335;51.566;6.994;2023-10-31T07:56:17;99420.72;;;9.70;100.00
48553;BME280;34335;51.566;6.994;2023-10-31T07:58:43;99428.47;;;9.72;100.00
48553;BME280;34335;51.566;6.994;2023-10-31T08:01:09;99430.88;;;9.81;100.00
48553;BME280;34335;51.566;6.994;2023-10-31T08:03:36;99437.75;;;9.85;100.00
48553;BME280;34335;51.566;6.994;2023-10-31T08:06:03;99435.16;;;9.83;100.00
48553;BME280;34335;51.566;6.994;2023-10-31T08:08:29;99425.47;;;9.92;100.00
48553;BME280;34335;51.566;6.994;2023-10-31T08:10:54;99425.47;;;9.93;100.00
48553;BME280;34335;51.566;6.994;2023-10-31T08:13:20;99434.00;;;10.00;100.00
48553;BME280;34335;51.566;6.994;2023-10-31T08:15:45;99431.41;;;10.00;100.00
48553;BME280;34335;51.566;6.994;2023-10-31T08:18:10;99432.22;;;10.04;100.00
48553;BME280;34335;51.566;6.994;2023-10-31T08:20:36;99431.44;;;9.98;100.00
48553;BME280;34335;51.566;6.994;2023-10-31T08:23:01;99438.28;;;10.01;100.00
48553;BME280;34335;51.566;6.994;2023-10-31T08:25:27;99430.59;;;9.96;100.00
48553;BME280;34335;51.566;6.994;2023-10-31T08:27:52;99444.47;;;9.95;100.00
48553;BME280;34335;51.566;6.994;2023-10-31T08:30:17;99442.66;;;10.01;100.00
48553;BME280;34335;51.566;6.994;2023-10-31T08:32:43;99454.84;;;9.95;100.00
48553;BME280;34335;51.566;6.994;2023-10-31T08:35:08;99452.22;;;9.98;100.00
48553;BME280;34335;51.566;6.994;2023-10-31T08:37:33;99446.09;;;10.01;100.00
48553;BME280;34335;51.566;6.994;2023-10-31T08:39:59;99446.09;;;10.03;100.00
48553;BME280;34335;51.566;6.994;2023-10-31T08:42:25;99445.13;;;10.07;100.00
48553;BME280;34335;51.566;6.994;2023-10-31T08:44:51;99450.31;;;10.07;100.00
48553;BME280;34335;51.566;6.994;2023-10-31T08:47:16;99445.06;;;10.10;100.00
48553;BME280;34335;51.566;6.994;2023-10-31T08:49:44;99450.97;;;10.18;100.00
48553;BME280;34335;51.566;6.994;2023-10-31T08:52:09;99456.94;;;10.23;100.00
48553;BME280;34335;51.566;6.994;2023-10-31T08:54:34;99466.75;;;10.09;100.00
48553;BME280;34335;51.566;6.994;2023-10-31T08:57:00;99471.19;;;10.04;100.00
48553;BME280;34335;51.566;6.994;2023-10-31T08:59:25;99482.53;;;9.96;100.00
48553;BME280;34335;51.566;6.994;2023-10-31T09:01:50;99489.41;;;10.01;100.00
48553;BME280;34335;51.566;6.994;2023-10-31T09:04:15;99497.06;;;10.07;100.00
48553;BME280;34335;51.566;6.994;2023-10-31T09:06:41;99499.00;;;9.95;100.00
48553;BME280;34335;51.566;6.994;2023-10-31T09:09:06;99502.47;;;9.96;100.00
48553;BME280;34335;51.566;6.994;2023-10-31T09:11:31;99505.00;;;10.01;100.00
48553;BME280;34335;51.566;6.994;2023-10-31T09:13:56;99507.47;;;10.07;100.00
48553;BME280;34335;51.566;6.994;2023-10-31T09:16:22;99516.97;;;10.08;100.00
48553;BME280;34335;51.566;6.994;2023-10-31T09:18:47;99511.66;;;10.16;100.00
48553;BME280;34335;51.566;6.994;2023-10-31T09:21:12;99521.13;;;10.18;100.00
48553;BME280;34335;51.566;6.994;2023-10-31T09:23:38;99515.78;;;10.24;100.00
48553;BME280;34335;51.566;6.994;2023-10-31T09:26:03;99526.09;;;10.31;100.00
48553;BME280;34335;51.566;6.994;2023-10-31T09:28:29;99526.16;;;10.27;100.00
48553;BME280;34335;51.566;6.994;2023-10-31T09:30:54;99530.47;;;10.28;100.00
48553;BME280;34335;51.566;6.994;2023-10-31T09:33:19;99536.31;;;10.41;100.00
48553;BME280;34335;51.566;6.994;2023-10-31T09:35:45;99544.81;;;10.50;100.00
48553;BME280;34335;51.566;6.994;2023-10-31T09:38:10;99537.19;;;10.42;100.00
48553;BME280;34335;51.566;6.994;2023-10-31T09:40:38;99541.34;;;10.51;100.00
48553;BME280;34335;51.566;6.994;2023-10-31T09:43:03;99553.41;;;10.53;100.00
48553;BME280;34335;51.566;6.994;2023-10-31T09:45:29;99557.53;;;10.64;100.00
48553;BME280;34335;51.566;6.994;2023-10-31T09:47:55;99548.72;;;10.72;100.00
48553;BME280;34335;51.566;6.994;2023-10-31T09:50:20;99572.13;;;10.72;100.00
48553;BME280;34335;51.566;6.994;2023-10-31T09:52:46;99563.09;;;10.90;100.00
48553;BME280;34335;51.566;6.994;2023-10-31T09:55:12;99571.94;;;10.82;100.00
48553;BME280;34335;51.566;6.994;2023-10-31T09:57:37;99567.03;;;11.09;100.00
48553;BME280;34335;51.566;6.994;2023-10-31T10:00:03;99581.19;;;10.97;100.00
48553;BME280;34335;51.566;6.994;2023-10-31T10:02:28;99578.53;;;11.00;100.00
48553;BME280;34335;51.566;6.994;2023-10-31T10:04:54;99585.69;;;10.87;100.00
48553;BME280;34335;51.566;6.994;2023-10-31T10:07:19;99594.19;;;10.97;100.00
48553;BME280;34335;51.566;6.994;2023-10-31T10:09:46;99594.94;;;11.02;100.00
48553;BME280;34335;51.566;6.994;2023-10-31T10:12:12;99606.66;;;10.79;100.00
48553;BME280;34335;51.566;6.994;2023-10-31T10:14:38;99610.16;;;10.78;100.00
48553;BME280;34335;51.566;6.994;2023-10-31T10:17:14;99614.47;;;10.79;100.00
48553;BME280;34335;51.566;6.994;2023-10-31T10:19:40;99626.69;;;10.74;100.00
48553;BME280;34335;51.566;6.994;2023-10-31T10:22:06;99624.88;;;10.79;100.00
48553;BME280;34335;51.566;6.994;2023-10-31T10:24:31;99629.31;;;10.72;100.00
48553;BME280;34335;51.566;6.994;2023-10-31T10:26:56;99638.06;;;10.68;100.00
48553;BME280;34335;51.566;6.994;2023-10-31T10:29:23;99636.28;;;10.72;100.00
48553;BME280;34335;51.566;6.994;2023-10-31T10:31:48;99637.22;;;10.68;100.00
48553;BME280;34335;51.566;6.994;2023-10-31T10:34:14;99639.69;;;10.75;100.00
48553;BME280;34335;51.566;6.994;2023-10-31T10:36:47;99653.41;;;10.82;100.00
48553;BME280;34335;51.566;6.994;2023-10-31T10:39:15;99644.63;;;10.88;100.00
48553;BME280;34335;51.566;6.994;2023-10-31T10:41:43;99654.06;;;10.94;100.00
48553;BME280;34335;51.566;6.994;2023-10-31T10:44:10;99656.00;;;10.82;100.00
48553;BME280;34335;51.566;6.994;2023-10-31T10:46:39;99653.31;;;10.87;100.00
48553;BME280;34335;51.566;6.994;2023-10-31T10:49:06;99651.47;;;10.95;100.00
48553;BME280;34335;51.566;6.994;2023-10-31T10:51:58;99653.31;;;10.88;100.00
48553;BME280;34335;51.566;6.994;2023-10-31T10:54:53;99654.31;;;10.81;100.00
48553;BME280;34335;51.566;6.994;2023-10-31T10:57:40;99659.41;;;10.87;100.00
48553;BME280;34335;51.566;6.994;2023-10-31T11:00:08;99651.38;;;11.00;100.00
48553;BME280;34335;51.566;6.994;2023-10-31T11:02:36;99647.09;;;10.96;100.00
48553;BME280;34335;51.566;6.994;2023-10-31T11:05:05;99657.28;;;11.06;100.00
48553;BME280;34335;51.566;6.994;2023-10-31T11:07:32;99656.56;;;11.00;100.00
48553;BME280;34335;51.566;6.994;2023-10-31T11:09:59;99659.97;;;11.03;100.00
48553;BME280;34335;51.566;6.994;2023-10-31T11:12:29;99653.91;;;11.01;100.00
48553;BME280;34335;51.566;6.994;2023-10-31T11:14:55;99656.56;;;11.00;100.00
48553;BME280;34335;51.566;6.994;2023-10-31T11:17:31;99661.81;;;10.97;100.00
48553;BME280;34335;51.566;6.994;2023-10-31T11:20:00;99667.06;;;10.95;100.00
48553;BME280;34335;51.566;6.994;2023-10-31T11:22:25;99662.66;;;10.99;100.00
48553;BME280;34335;51.566;6.994;2023-10-31T11:24:51;99665.16;;;11.03;100.00
48553;BME280;34335;51.566;6.994;2023-10-31T11:27:17;99663.59;;;10.95;100.00
48553;BME280;34335;51.566;6.994;2023-10-31T11:29:43;99673.81;;;11.05;100.00
48553;BME280;34335;51.566;6.994;2023-10-31T11:32:10;99676.53;;;10.98;100.00
48553;BME280;34335;51.566;6.994;2023-10-31T11:34:40;99674.59;;;11.09;100.00
48553;BME280;34335;51.566;6.994;2023-10-31T11:37:25;99689.34;;;11.09;100.00
48553;BME280;34335;51.566;6.994;2023-10-31T11:42:43;99685.09;;;11.03;100.00
48553;BME280;34335;51.566;6.994;2023-10-31T11:45:11;99681.63;;;11.04;100.00
48553;BME280;34335;51.566;6.994;2023-10-31T11:47:50;99682.53;;;11.01;100.00
48553;BME280;34335;51.566;6.994;2023-10-31T11:50:16;99676.13;;;11.18;100.00
48553;BME280;34335;51.566;6.994;2023-10-31T11:52:41;99687.34;;;11.23;100.00
48553;BME280;34335;51.566;6.994;2023-10-31T11:55:16;99680.25;;;11.30;100.00
48553;BME280;34335;51.566;6.994;2023-10-31T11:57:41;99689.63;;;11.38;100.00
48553;BME280;34335;51.566;6.994;2023-10-31T12:00:07;99695.59;;;11.44;100.00
48553;BME280;34335;51.566;6.994;2023-10-31T12:02:57;99687.88;;;11.39;100.00
48553;BME280;34335;51.566;6.994;2023-10-31T12:05:22;99684.06;;;11.56;100.00
48553;BME280;34335;51.566;6.994;2023-10-31T12:07:47;99688.41;;;11.55;100.00
48553;BME280;34335;51.566;6.994;2023-10-31T12:10:21;99691.72;;;11.62;100.00
48553;BME280;34335;51.566;6.994;2023-10-31T12:12:48;99696.09;;;11.60;100.00
48553;BME280;34335;51.566;6.994;2023-10-31T12:15:13;99697.81;;;11.62;100.00
48553;BME280;34335;51.566;6.994;2023-10-31T12:17:39;99696.88;;;11.65;100.00
48553;BME280;34335;51.566;6.994;2023-10-31T12:20:06;99703.06;;;11.59;100.00
48553;BME280;34335;51.566;6.994;2023-10-31T12:22:35;99709.31;;;11.50;100.00
48553;BME280;34335;51.566;6.994;2023-10-31T12:25:05;99708.47;;;11.50;100.00
48553;BME280;34335;51.566;6.994;2023-10-31T12:27:49;99711.88;;;11.53;100.00
48553;BME280;34335;51.566;6.994;2023-10-31T12:30:20;99716.38;;;11.45;100.00
48553;BME280;34335;51.566;6.994;2023-10-31T12:32:53;99721.47;;;11.51;100.00
48553;BME280;34335;51.566;6.994;2023-10-31T12:35:20;99720.72;;;11.45;100.00
48553;BME280;34335;51.566;6.994;2023-10-31T12:37:47;99719.72;;;11.52;100.00
48553;BME280;34335;51.566;6.994;2023-10-31T12:40:18;99723.41;;;11.42;100.00
48553;BME280;34335;51.566;6.994;2023-10-31T12:42:44;99716.16;;;11.56;100.00
48553;BME280;34335;51.566;6.994;2023-10-31T12:45:11;99718.66;;;11.61;100.00
48553;BME280;34335;51.566;6.994;2023-10-31T12:47:37;99718.66;;;11.61;100.00
48553;BME280;34335;51.566;6.994;2023-10-31T12:50:20;99715.94;;;11.67;100.00
48553;BME280;34335;51.566;6.994;2023-10-31T12:52:50;99718.66;;;11.62;100.00